createdAt,value
2022-08-22T00:01:48.865Z,15.20
2022-08-22T00:03:01.451Z,15.20
2022-08-22T00:03:15.374Z,15.40
2022-08-22T00:04:58.403Z,15.20
2022-08-22T00:07:59.878Z,15.20
2022-08-22T00:11:12.931Z,15.20
2022-08-22T00:14:31.149Z,15.10
2022-08-22T00:17:33.391Z,15.10
2022-08-22T00:20:29.022Z,15.00
2022-08-22T00:23:22.680Z,15.00
2022-08-22T00:26:33.878Z,15.00
2022-08-22T00:29:43.496Z,15.00
2022-08-22T00:32:42.490Z,15.00
2022-08-22T00:35:46.397Z,14.90
2022-08-22T00:38:38.584Z,14.90
2022-08-22T00:41:49.651Z,14.80
2022-08-22T00:44:35.602Z,14.80
2022-08-22T00:47:36.683Z,14.80
2022-08-22T00:50:37.279Z,14.80
2022-08-22T00:53:41.265Z,14.80
2022-08-22T00:56:41.926Z,14.80
2022-08-22T01:00:05.646Z,14.90
2022-08-22T01:03:26.910Z,14.90
2022-08-22T01:06:21.821Z,15.00
2022-08-22T01:09:19.010Z,15.00
2022-08-22T01:12:39.680Z,15.00
2022-08-22T01:15:30.062Z,15.10
2022-08-22T01:18:51.443Z,15.10
2022-08-22T01:22:00.885Z,15.10
2022-08-22T01:25:32.941Z,15.10
2022-08-22T01:28:56.742Z,15.20
2022-08-22T01:32:18.242Z,15.10
2022-08-22T01:35:36.535Z,15.00
2022-08-22T01:38:38.302Z,15.00
2022-08-22T01:41:41.003Z,14.90
2022-08-22T01:45:01.653Z,14.90
2022-08-22T01:48:05.589Z,14.80
2022-08-22T01:50:57.584Z,14.70
2022-08-22T01:53:51.085Z,14.60
2022-08-22T01:56:45.091Z,14.50
2022-08-22T01:59:35.253Z,14.40
2022-08-22T02:02:44.562Z,14.30
2022-08-22T02:05:53.455Z,14.30
2022-08-22T02:08:45.089Z,14.30
2022-08-22T02:11:33.901Z,14.30
2022-08-22T02:14:43.412Z,14.30
2022-08-22T02:17:31.851Z,14.20
2022-08-22T02:20:25.632Z,14.20
2022-08-22T02:23:20.753Z,14.20
2022-08-22T02:26:43.253Z,14.30
2022-08-22T02:29:40.579Z,14.30
2022-08-22T02:32:35.338Z,14.30
2022-08-22T02:35:51.852Z,14.20
2022-08-22T02:38:50.071Z,14.20
2022-08-22T02:41:54.430Z,14.20
2022-08-22T02:44:51.579Z,14.10
2022-08-22T02:47:49.768Z,14.10
2022-08-22T02:50:47.193Z,14.00
2022-08-22T02:53:57.954Z,14.00
2022-08-22T02:56:59.060Z,14.00
2022-08-22T03:00:31.629Z,14.00
2022-08-22T03:03:23.668Z,13.90
2022-08-22T03:06:32.757Z,13.90
2022-08-22T03:09:26.023Z,13.90
2022-08-22T03:12:32.237Z,14.00
2022-08-22T03:15:36.602Z,14.00
2022-08-22T03:18:53.675Z,14.00
2022-08-22T03:21:46.088Z,13.90
2022-08-22T03:24:39.970Z,14.00
2022-08-22T03:27:33.742Z,14.00
2022-08-22T03:30:27.814Z,14.00
2022-08-22T03:33:26.147Z,14.10
2022-08-22T03:36:14.866Z,14.10
2022-08-22T03:39:44.119Z,14.20
2022-08-22T03:43:05.135Z,14.20
2022-08-22T03:46:02.948Z,14.30
2022-08-22T03:49:06.376Z,14.30
2022-08-22T03:51:52.339Z,14.50
2022-08-22T03:55:01.291Z,14.60
2022-08-22T03:57:56.180Z,14.60
2022-08-22T04:01:06.445Z,14.80
2022-08-22T04:04:35.317Z,14.90
2022-08-22T04:07:35.579Z,15.00
2022-08-22T04:10:45.011Z,15.20
2022-08-22T04:13:48.578Z,15.30
2022-08-22T04:16:49.827Z,15.40
2022-08-22T04:20:02.176Z,15.50
2022-08-22T04:22:54.712Z,15.60
2022-08-22T04:25:42.159Z,15.60
2022-08-22T04:28:57.095Z,15.70
2022-08-22T04:32:02.103Z,15.80
2022-08-22T04:35:17.408Z,15.90
2022-08-22T04:38:16.767Z,16.00
2022-08-22T04:41:11.978Z,16.10
2022-08-22T04:44:42.960Z,16.20
2022-08-22T04:47:34.285Z,16.30
2022-08-22T04:51:00.551Z,16.40
2022-08-22T04:53:55.929Z,16.50
2022-08-22T04:57:06.833Z,16.60
2022-08-22T05:00:03.189Z,16.80
2022-08-22T05:02:56.614Z,16.90
2022-08-22T05:05:45.110Z,17.00
2022-08-22T05:08:36.123Z,17.10
2022-08-22T05:11:25.551Z,17.20
2022-08-22T05:14:36.635Z,17.40
2022-08-22T05:17:26.913Z,17.60
2022-08-22T05:20:21.301Z,17.80
2022-08-22T05:23:25.637Z,18.00
2022-08-22T05:26:14.739Z,18.30
2022-08-22T05:29:05.431Z,18.50
2022-08-22T05:32:01.526Z,18.50
2022-08-22T05:34:51.399Z,18.70
2022-08-22T05:37:44.826Z,18.90
2022-08-22T05:40:33.621Z,19.00
2022-08-22T05:43:20.951Z,19.10
2022-08-22T05:46:11.504Z,19.20
2022-08-22T05:49:00.228Z,19.30
2022-08-22T05:51:57.731Z,19.30
2022-08-22T05:54:56.089Z,19.30
2022-08-22T05:57:47.488Z,19.40
2022-08-22T06:00:39.301Z,19.40
2022-08-22T06:03:36.463Z,19.60
2022-08-22T06:06:24.634Z,19.80
2022-08-22T06:09:35.514Z,19.90
2022-08-22T06:12:43.893Z,20.50
2022-08-22T06:15:56.815Z,21.10
2022-08-22T06:18:44.180Z,22.00
2022-08-22T06:21:39.428Z,23.10
2022-08-22T06:24:28.041Z,24.10
2022-08-22T06:27:16.888Z,24.50
2022-08-22T06:30:04.564Z,25.00
2022-08-22T06:32:59.902Z,25.80
2022-08-22T06:36:15.525Z,26.30
2022-08-22T06:39:33.503Z,26.60
2022-08-22T06:42:26.037Z,26.80
2022-08-22T06:45:22.034Z,27.40
2022-08-22T06:48:08.529Z,26.10
2022-08-22T06:50:58.694Z,24.70
2022-08-22T06:53:48.479Z,24.20
2022-08-22T06:56:39.541Z,25.10
2022-08-22T06:59:29.516Z,26.20
2022-08-22T07:02:28.817Z,27.10
2022-08-22T07:05:22.021Z,27.90
2022-08-22T07:08:19.024Z,27.80
2022-08-22T07:11:21.909Z,27.50
2022-08-22T07:14:15.703Z,26.50
2022-08-22T07:17:05.019Z,25.50
2022-08-22T07:20:22.578Z,25.40
2022-08-22T07:23:12.868Z,25.20
2022-08-22T07:26:38.598Z,26.10
2022-08-22T07:29:38.525Z,27.10
2022-08-22T07:32:27.596Z,27.80
2022-08-22T07:35:13.189Z,27.60
2022-08-22T07:38:17.860Z,26.60
2022-08-22T07:41:23.764Z,24.90
2022-08-22T07:44:23.801Z,24.30
2022-08-22T07:47:18.079Z,24.30
2022-08-22T07:53:30.629Z,26.50
2022-08-22T07:56:23.717Z,26.40
2022-08-22T07:59:17.043Z,26.20
2022-08-22T08:02:12.209Z,25.80
2022-08-22T08:05:00.765Z,25.20
2022-08-22T08:07:48.037Z,24.90
2022-08-22T08:10:36.914Z,24.90
2022-08-22T08:13:37.924Z,24.30
2022-08-22T08:16:28.043Z,23.80
2022-08-22T08:19:16.884Z,23.90
2022-08-22T08:22:02.757Z,23.70
2022-08-22T08:24:49.731Z,23.30
2022-08-22T08:27:57.376Z,23.30
2022-08-22T08:31:01.022Z,23.70
2022-08-22T08:33:50.346Z,24.00
2022-08-22T08:36:53.209Z,24.50
2022-08-22T08:39:48.624Z,25.10
2022-08-22T08:43:15.055Z,25.30
2022-08-22T08:46:14.354Z,24.70
2022-08-22T08:49:06.434Z,25.40
2022-08-22T08:52:21.513Z,25.90
2022-08-22T08:55:42.335Z,25.40
2022-08-22T08:58:46.504Z,24.80
2022-08-22T09:01:53.361Z,24.70
2022-08-22T09:04:45.121Z,23.70
2022-08-22T09:08:05.444Z,23.50
2022-08-22T09:11:16.243Z,23.30
2022-08-22T09:14:11.912Z,23.10
2022-08-22T09:17:37.150Z,22.90
2022-08-22T09:20:29.919Z,22.60
2022-08-22T09:23:34.875Z,22.60
2022-08-22T09:26:57.210Z,22.70
2022-08-22T09:29:59.678Z,23.30
2022-08-22T09:32:48.816Z,23.20
2022-08-22T09:35:44.028Z,22.70
2022-08-22T09:38:59.860Z,22.60
2022-08-22T09:42:21.144Z,22.90
2022-08-22T09:45:40.751Z,23.40
2022-08-22T09:48:34.693Z,23.80
2022-08-22T09:51:41.424Z,23.80
2022-08-22T09:54:32.934Z,23.30
2022-08-22T09:57:27.961Z,23.50
2022-08-22T10:00:18.971Z,23.60
2022-08-22T10:03:27.858Z,23.80
2022-08-22T10:06:23.452Z,23.60
2022-08-22T10:09:53.648Z,23.80
2022-08-22T10:13:00.338Z,23.60
2022-08-22T10:15:51.617Z,23.90
2022-08-22T10:19:11.785Z,23.90
2022-08-22T10:22:21.136Z,23.50
2022-08-22T10:25:42.195Z,23.40
2022-08-22T10:28:44.018Z,23.50
2022-08-22T10:31:42.803Z,23.20
2022-08-22T10:34:50.000Z,23.40
2022-08-22T10:37:55.065Z,23.40
2022-08-22T10:41:00.758Z,23.30
2022-08-22T10:44:08.545Z,23.30
2022-08-22T10:47:05.536Z,23.10
2022-08-22T10:50:35.022Z,23.30
2022-08-22T10:53:35.544Z,23.20
2022-08-22T10:56:49.577Z,23.40
2022-08-22T10:59:46.153Z,23.40
2022-08-22T11:02:42.179Z,23.00
2022-08-22T11:05:38.030Z,23.10
2022-08-22T11:08:34.943Z,23.00
2022-08-22T11:11:37.263Z,23.00
2022-08-22T11:15:28.515Z,23.20
2022-08-22T11:18:36.814Z,23.10
2022-08-22T11:21:33.161Z,23.40
2022-08-22T11:24:35.737Z,23.70
2022-08-22T11:27:43.589Z,23.90
2022-08-22T11:30:44.585Z,24.10
2022-08-22T11:33:49.153Z,24.20
2022-08-22T11:36:54.587Z,23.70
2022-08-22T11:39:40.373Z,23.70
2022-08-22T11:42:52.473Z,23.70
2022-08-22T11:45:47.032Z,23.00
2022-08-22T11:48:42.659Z,22.70
2022-08-22T11:52:04.874Z,23.00
2022-08-22T11:54:59.818Z,23.10
2022-08-22T11:57:49.971Z,23.30
2022-08-22T12:00:47.699Z,23.70
2022-08-22T12:04:09.923Z,23.90
2022-08-22T12:07:34.016Z,23.70
2022-08-22T12:10:24.397Z,23.40
2022-08-22T12:13:34.923Z,22.90
2022-08-22T12:16:37.535Z,23.00
2022-08-22T12:19:26.512Z,23.30
2022-08-22T12:22:36.393Z,23.00
2022-08-22T12:25:22.343Z,23.10
2022-08-22T12:28:30.244Z,22.90
2022-08-22T12:32:12.720Z,23.10
2022-08-22T12:35:15.533Z,23.10
2022-08-22T12:38:29.057Z,22.90
2022-08-22T12:41:35.225Z,22.70
2022-08-22T12:44:41.664Z,23.00
2022-08-22T12:47:34.429Z,23.30
2022-08-22T12:50:41.229Z,23.00
2022-08-22T12:54:10.280Z,23.10
2022-08-22T12:57:25.900Z,23.10
2022-08-22T13:00:32.005Z,23.30
2022-08-22T13:03:26.542Z,23.30
2022-08-22T13:06:34.090Z,23.10
2022-08-22T13:09:35.762Z,23.20
2022-08-22T13:12:45.371Z,23.10
2022-08-22T13:15:54.190Z,22.90
2022-08-22T13:18:53.567Z,22.60
2022-08-22T13:21:46.650Z,22.70
2022-08-22T13:24:51.697Z,22.60
2022-08-22T13:27:50.798Z,22.60
2022-08-22T13:30:41.116Z,22.60
2022-08-22T13:33:32.503Z,22.60
2022-08-22T13:36:21.858Z,22.50
2022-08-22T13:39:25.371Z,22.60
2022-08-22T13:42:30.256Z,22.60
2022-08-22T13:45:38.185Z,22.70
2022-08-22T13:48:29.158Z,22.60
2022-08-22T13:51:21.950Z,22.40
2022-08-22T13:54:12.160Z,22.20
2022-08-22T13:57:11.117Z,22.20
2022-08-22T14:00:32.509Z,22.00
2022-08-22T14:03:26.154Z,22.00
2022-08-22T14:06:55.744Z,22.00
2022-08-22T14:09:54.390Z,21.90
2022-08-22T14:13:00.397Z,21.90
2022-08-22T14:15:47.113Z,21.70
2022-08-22T14:18:45.630Z,21.30
2022-08-22T14:21:41.439Z,21.20
2022-08-22T14:24:38.873Z,21.20
2022-08-22T14:27:45.504Z,21.10
2022-08-22T14:30:49.262Z,21.10
2022-08-22T14:33:48.949Z,21.10
2022-08-22T14:36:40.803Z,21.10
2022-08-22T14:39:35.769Z,21.00
2022-08-22T14:42:26.627Z,20.90
2022-08-22T14:45:24.992Z,20.90
2022-08-22T14:48:30.890Z,21.00
2022-08-22T14:51:24.560Z,21.00
2022-08-22T14:54:21.437Z,21.10
2022-08-22T14:57:19.844Z,21.10
2022-08-22T15:00:12.326Z,21.00
2022-08-22T15:03:22.871Z,20.80
2022-08-22T15:06:14.404Z,20.70
2022-08-22T15:09:01.077Z,20.80
2022-08-22T15:11:54.011Z,20.80
2022-08-22T15:14:48.956Z,20.80
2022-08-22T15:17:45.160Z,20.80
2022-08-22T15:20:49.051Z,20.70
2022-08-22T15:23:45.384Z,20.70
2022-08-22T15:26:38.802Z,20.70
2022-08-22T15:29:28.110Z,20.70
2022-08-22T15:32:21.569Z,20.60
2022-08-22T15:35:09.849Z,20.60
2022-08-22T15:38:06.775Z,20.60
2022-08-22T15:40:53.724Z,20.70
2022-08-22T15:43:47.004Z,20.60
2022-08-22T15:46:41.883Z,20.70
2022-08-22T15:49:36.242Z,20.50
2022-08-22T15:52:33.214Z,20.60
2022-08-22T15:55:26.662Z,20.50
2022-08-22T15:58:24.214Z,20.50
2022-08-22T16:01:19.968Z,20.50
2022-08-22T16:04:12.447Z,20.50
2022-08-22T16:07:02.986Z,20.50
2022-08-22T16:09:58.549Z,20.40
2022-08-22T16:12:48.025Z,20.40
2022-08-22T16:15:54.145Z,20.30
2022-08-22T16:18:44.747Z,20.30
2022-08-22T16:21:30.571Z,20.20
2022-08-22T16:24:21.141Z,20.10
2022-08-22T16:27:25.806Z,20.10
2022-08-22T16:30:14.722Z,20.00
2022-08-22T16:33:01.053Z,20.10
2022-08-22T16:36:17.865Z,20.00
2022-08-22T16:39:27.765Z,20.00
2022-08-22T16:42:16.322Z,20.00
2022-08-22T16:45:17.680Z,20.00
2022-08-22T16:48:25.539Z,19.90
2022-08-22T16:51:21.437Z,20.00
2022-08-22T16:54:32.663Z,20.00
2022-08-22T16:57:37.224Z,19.90
2022-08-22T17:00:50.789Z,19.90
2022-08-22T17:03:56.986Z,19.90
2022-08-22T17:07:10.029Z,19.80
2022-08-22T17:10:03.434Z,19.70
2022-08-22T17:13:10.622Z,19.70
2022-08-22T17:16:35.896Z,19.70
2022-08-22T17:19:47.669Z,19.70
2022-08-22T17:22:40.591Z,19.70
2022-08-22T17:26:07.807Z,19.70
2022-08-22T17:29:16.904Z,19.60
2022-08-22T17:32:14.625Z,19.60
2022-08-22T17:35:24.932Z,19.60
2022-08-22T17:38:31.293Z,19.60
2022-08-22T17:41:23.323Z,19.60
2022-08-22T17:44:21.227Z,19.60
2022-08-22T17:47:15.117Z,19.50
2022-08-22T17:50:13.552Z,19.40
2022-08-22T17:53:09.582Z,19.50
2022-08-22T17:55:58.919Z,19.40
2022-08-22T17:59:12.765Z,19.40
2022-08-22T18:02:16.487Z,19.30
2022-08-22T18:05:17.292Z,19.20
2022-08-22T18:12:01.026Z,19.10
2022-08-22T18:14:58.614Z,19.10
2022-08-22T18:17:55.837Z,19.00
2022-08-22T18:21:20.904Z,18.90
2022-08-22T18:24:09.834Z,18.90
2022-08-22T18:27:01.521Z,18.90
2022-08-22T18:29:57.069Z,18.90
2022-08-22T18:33:13.978Z,18.80
2022-08-22T18:36:08.293Z,18.80
2022-08-22T18:39:13.845Z,18.90
2022-08-22T18:42:11.343Z,18.80
2022-08-22T18:44:57.208Z,18.70
2022-08-22T18:47:43.024Z,18.60
2022-08-22T18:50:32.786Z,18.60
2022-08-22T18:53:38.306Z,18.50
2022-08-22T18:56:45.738Z,18.50
2022-08-22T19:00:16.697Z,18.40
2022-08-22T19:03:03.560Z,18.40
2022-08-22T19:06:24.747Z,18.30
2022-08-22T19:09:40.676Z,18.20
2022-08-22T19:12:55.947Z,18.10
2022-08-22T19:15:50.563Z,18.00
2022-08-22T19:18:42.867Z,18.00
2022-08-22T19:21:52.330Z,18.00
2022-08-22T19:25:15.575Z,17.90
2022-08-22T19:28:10.260Z,17.90
2022-08-22T19:31:34.000Z,17.90
2022-08-22T19:34:25.910Z,17.80
2022-08-22T19:37:32.100Z,17.80
2022-08-22T19:40:44.763Z,17.70
2022-08-22T19:43:30.442Z,17.70
2022-08-22T19:46:39.111Z,17.60
2022-08-22T19:49:35.860Z,17.60
2022-08-22T19:52:46.274Z,17.50
2022-08-22T19:55:37.961Z,17.40
2022-08-22T19:58:36.058Z,17.40
2022-08-22T20:01:46.459Z,17.40
2022-08-22T20:04:37.409Z,17.40
2022-08-22T20:07:32.998Z,17.30
2022-08-22T20:10:52.019Z,17.30
2022-08-22T20:13:38.923Z,17.20
2022-08-22T20:17:04.175Z,17.10
2022-08-22T20:23:02.939Z,17.30
2022-08-22T20:25:52.943Z,17.30
2022-08-22T20:28:48.849Z,17.30
2022-08-22T20:31:36.442Z,17.30
2022-08-22T20:34:30.543Z,17.30
2022-08-22T20:37:35.968Z,17.20
2022-08-22T20:40:57.643Z,17.10
2022-08-22T20:43:53.120Z,17.10
2022-08-22T20:46:57.605Z,17.10
2022-08-22T20:49:50.644Z,17.10
2022-08-22T20:52:41.630Z,17.10
2022-08-22T20:55:31.731Z,17.10
2022-08-22T20:58:24.702Z,17.10
2022-08-22T21:01:12.298Z,17.20
2022-08-22T21:03:58.404Z,17.20
2022-08-22T21:06:44.297Z,17.30
2022-08-22T21:09:48.564Z,17.40
2022-08-22T21:12:34.664Z,17.50
2022-08-22T21:15:31.226Z,17.50
2022-08-22T21:18:34.179Z,17.60
2022-08-22T21:21:24.989Z,17.70
2022-08-22T21:24:10.983Z,17.70
2022-08-22T21:27:00.587Z,17.70
2022-08-22T21:29:47.717Z,17.80
2022-08-22T21:32:48.565Z,17.80
2022-08-22T21:35:37.022Z,17.80
2022-08-22T21:38:22.989Z,17.80
2022-08-22T21:41:08.823Z,17.80
2022-08-22T21:43:55.011Z,17.80
2022-08-22T21:46:40.875Z,17.70
2022-08-22T21:49:29.621Z,17.70
2022-08-22T21:52:26.939Z,17.80
2022-08-22T21:55:26.630Z,17.70
2022-08-22T21:58:36.857Z,17.70
2022-08-22T22:01:32.358Z,17.70
2022-08-22T22:04:18.257Z,17.70
2022-08-22T22:07:04.233Z,17.70
2022-08-22T22:09:54.465Z,17.70
2022-08-22T22:12:42.853Z,17.70
2022-08-22T22:15:32.045Z,17.70
2022-08-22T22:18:21.219Z,17.80
2022-08-22T22:21:07.826Z,17.80
2022-08-22T22:23:53.769Z,17.80
2022-08-22T22:26:44.114Z,17.80
2022-08-22T22:29:29.754Z,17.80
2022-08-22T22:32:15.322Z,17.80
2022-08-22T22:35:01.246Z,17.90
2022-08-22T22:37:47.574Z,17.90
2022-08-22T22:40:33.314Z,17.90
2022-08-22T22:43:19.189Z,17.90
2022-08-22T22:46:05.518Z,17.90
2022-08-22T22:48:51.577Z,17.90
2022-08-22T22:51:37.565Z,18.00
2022-08-22T22:54:27.246Z,18.00
2022-08-22T22:57:17.204Z,18.00
2022-08-22T23:00:12.956Z,18.00
2022-08-22T23:03:03.913Z,18.10
2022-08-22T23:05:49.418Z,18.10
2022-08-22T23:08:35.414Z,18.10
2022-08-22T23:11:28.754Z,18.10
2022-08-22T23:14:14.533Z,18.10
2022-08-22T23:17:00.228Z,18.10
2022-08-22T23:19:46.362Z,18.00
2022-08-22T23:22:33.909Z,18.00
2022-08-22T23:25:19.526Z,17.90
2022-08-22T23:28:05.670Z,17.80
2022-08-22T23:30:51.509Z,17.80
2022-08-22T23:33:37.438Z,17.70
2022-08-22T23:36:24.305Z,17.70
2022-08-22T23:39:11.114Z,17.70
2022-08-22T23:41:57.889Z,17.60
2022-08-22T23:44:45.882Z,17.60
2022-08-22T23:47:31.430Z,17.50
2022-08-22T23:50:17.212Z,17.40
2022-08-22T23:53:03.759Z,17.40
2022-08-22T23:55:49.701Z,17.40
2022-08-22T23:58:35.415Z,17.50
